sensor_id;sensor_type;location;lat;lon;timestamp;temperature;humidity
17619;DHT22;8928;51.678;6.074;2023-02-28T00:00:38;-2.00;99.90
17619;DHT22;8928;51.678;6.074;2023-02-28T00:03:27;-2.00;99.90
17619;DHT22;8928;51.678;6.074;2023-02-28T00:06:14;-2.00;99.90
17619;DHT22;8928;51.678;6.074;2023-02-28T00:09:01;-2.00;99.90
17619;DHT22;8928;51.678;6.074;2023-02-28T00:11:48;-2.00;99.90
17619;DHT22;8928;51.678;6.074;2023-02-28T00:14:35;-2.00;99.90
17619;DHT22;8928;51.678;6.074;2023-02-28T00:17:22;-2.00;99.90
17619;DHT22;8928;51.678;6.074;2023-02-28T00:20:12;-1.90;99.90
17619;DHT22;8928;51.678;6.074;2023-02-28T00:22:59;-1.90;99.90
17619;DHT22;8928;51.678;6.074;2023-02-28T00:25:46;-1.80;99.90
17619;DHT22;8928;51.678;6.074;2023-02-28T00:28:33;-1.80;99.90
17619;DHT22;8928;51.678;6.074;2023-02-28T00:31:20;-1.80;99.90
17619;DHT22;8928;51.678;6.074;2023-02-28T00:34:07;-1.80;99.90
17619;DHT22;8928;51.678;6.074;2023-02-28T00:36:56;-1.80;99.90
17619;DHT22;8928;51.678;6.074;2023-02-28T00:39:43;-1.80;99.90
17619;DHT22;8928;51.678;6.074;2023-02-28T00:42:30;-1.90;99.90
17619;DHT22;8928;51.678;6.074;2023-02-28T00:45:17;-1.90;99.90
17619;DHT22;8928;51.678;6.074;2023-02-28T00:48:05;-1.90;99.90
17619;DHT22;8928;51.678;6.074;2023-02-28T00:50:52;-1.90;99.90
17619;DHT22;8928;51.678;6.074;2023-02-28T00:53:41;-2.00;99.90
17619;DHT22;8928;51.678;6.074;2023-02-28T00:56:28;-2.00;99.90
17619;DHT22;8928;51.678;6.074;2023-02-28T00:59:16;-2.10;99.90
17619;DHT22;8928;51.678;6.074;2023-02-28T01:02:03;-2.10;99.90
17619;DHT22;8928;51.678;6.074;2023-02-28T01:04:50;-2.20;99.90
17619;DHT22;8928;51.678;6.074;2023-02-28T01:07:37;-2.20;99.90
17619;DHT22;8928;51.678;6.074;2023-02-28T01:10:27;-2.20;99.90
17619;DHT22;8928;51.678;6.074;2023-02-28T01:13:17;-2.20;99.90
17619;DHT22;8928;51.678;6.074;2023-02-28T01:16:05;-2.30;99.90
17619;DHT22;8928;51.678;6.074;2023-02-28T01:18:52;-2.30;99.90
17619;DHT22;8928;51.678;6.074;2023-02-28T01:21:39;-2.20;99.90
17619;DHT22;8928;51.678;6.074;2023-02-28T01:24:26;-2.20;99.90
17619;DHT22;8928;51.678;6.074;2023-02-28T01:27:14;-2.10;99.90
17619;DHT22;8928;51.678;6.074;2023-02-28T01:30:01;-2.00;99.90
17619;DHT22;8928;51.678;6.074;2023-02-28T01:32:48;-2.00;99.90
17619;DHT22;8928;51.678;6.074;2023-02-28T01:35:37;-1.90;99.90
17619;DHT22;8928;51.678;6.074;2023-02-28T01:38:24;-1.80;99.90
17619;DHT22;8928;51.678;6.074;2023-02-28T01:41:15;-1.70;99.90
17619;DHT22;8928;51.678;6.074;2023-02-28T01:44:06;-1.70;99.90
17619;DHT22;8928;51.678;6.074;2023-02-28T01:46:53;-1.60;99.90
17619;DHT22;8928;51.678;6.074;2023-02-28T01:49:40;-1.50;99.90
17619;DHT22;8928;51.678;6.074;2023-02-28T01:52:29;-1.50;99.90
17619;DHT22;8928;51.678;6.074;2023-02-28T01:55:17;-1.40;99.90
17619;DHT22;8928;51.678;6.074;2023-02-28T01:58:06;-1.40;99.90
17619;DHT22;8928;51.678;6.074;2023-02-28T02:00:56;-1.30;99.90
17619;DHT22;8928;51.678;6.074;2023-02-28T02:03:43;-1.30;99.90
17619;DHT22;8928;51.678;6.074;2023-02-28T02:06:34;-1.30;99.90
17619;DHT22;8928;51.678;6.074;2023-02-28T02:09:22;-1.30;99.90
17619;DHT22;8928;51.678;6.074;2023-02-28T02:12:14;-1.20;99.90
17619;DHT22;8928;51.678;6.074;2023-02-28T02:15:06;-1.10;99.90
17619;DHT22;8928;51.678;6.074;2023-02-28T02:17:59;-1.10;99.90
17619;DHT22;8928;51.678;6.074;2023-02-28T02:24:58;-0.90;99.90
17619;DHT22;8928;51.678;6.074;2023-02-28T02:31:29;-0.90;99.90
17619;DHT22;8928;51.678;6.074;2023-02-28T02:34:33;-0.80;99.90
17619;DHT22;8928;51.678;6.074;2023-02-28T02:37:31;-0.80;99.90
17619;DHT22;8928;51.678;6.074;2023-02-28T02:40:22;-0.70;99.90
17619;DHT22;8928;51.678;6.074;2023-02-28T02:43:15;-0.70;99.90
17619;DHT22;8928;51.678;6.074;2023-02-28T02:46:07;-0.70;99.90
17619;DHT22;8928;51.678;6.074;2023-02-28T02:48:56;-0.60;99.90
17619;DHT22;8928;51.678;6.074;2023-02-28T02:51:47;-0.60;99.90
17619;DHT22;8928;51.678;6.074;2023-02-28T02:54:36;-0.60;99.90
17619;DHT22;8928;51.678;6.074;2023-02-28T02:57:27;-0.50;99.90
17619;DHT22;8928;51.678;6.074;2023-02-28T03:00:19;-0.50;99.90
17619;DHT22;8928;51.678;6.074;2023-02-28T03:03:08;-0.40;99.90
17619;DHT22;8928;51.678;6.074;2023-02-28T03:05:57;-0.40;99.90
17619;DHT22;8928;51.678;6.074;2023-02-28T03:08:46;-0.40;99.90
17619;DHT22;8928;51.678;6.074;2023-02-28T03:11:35;-0.40;99.90
17619;DHT22;8928;51.678;6.074;2023-02-28T03:14:37;-0.30;99.90
17619;DHT22;8928;51.678;6.074;2023-02-28T03:17:55;-0.30;99.90
17619;DHT22;8928;51.678;6.074;2023-02-28T03:20:51;-0.30;99.90
17619;DHT22;8928;51.678;6.074;2023-02-28T03:23:48;-0.20;99.90
17619;DHT22;8928;51.678;6.074;2023-02-28T03:26:41;-0.20;99.90
17619;DHT22;8928;51.678;6.074;2023-02-28T03:29:34;-0.20;99.90
17619;DHT22;8928;51.678;6.074;2023-02-28T03:32:25;-0.20;99.90
17619;DHT22;8928;51.678;6.074;2023-02-28T03:35:17;-0.10;99.90
17619;DHT22;8928;51.678;6.074;2023-02-28T03:38:11;-0.10;99.90
17619;DHT22;8928;51.678;6.074;2023-02-28T03:41:05;-0.10;99.90
17619;DHT22;8928;51.678;6.074;2023-02-28T03:43:55;-0.10;99.90
17619;DHT22;8928;51.678;6.074;2023-02-28T03:46:47;-0.10;99.90
17619;DHT22;8928;51.678;6.074;2023-02-28T03:49:40;0.00;99.90
17619;DHT22;8928;51.678;6.074;2023-02-28T03:52:33;0.00;99.90
17619;DHT22;8928;51.678;6.074;2023-02-28T03:55:21;0.00;99.90
17619;DHT22;8928;51.678;6.074;2023-02-28T03:58:14;0.00;99.90
17619;DHT22;8928;51.678;6.074;2023-02-28T04:01:05;0.00;99.90
17619;DHT22;8928;51.678;6.074;2023-02-28T04:03:54;0.00;99.90
17619;DHT22;8928;51.678;6.074;2023-02-28T04:06:41;0.00;99.90
17619;DHT22;8928;51.678;6.074;2023-02-28T04:09:28;0.00;99.90
17619;DHT22;8928;51.678;6.074;2023-02-28T04:12:15;0.10;99.90
17619;DHT22;8928;51.678;6.074;2023-02-28T04:15:05;0.10;99.90
17619;DHT22;8928;51.678;6.074;2023-02-28T04:17:52;0.10;99.90
17619;DHT22;8928;51.678;6.074;2023-02-28T04:20:39;0.10;99.90
17619;DHT22;8928;51.678;6.074;2023-02-28T04:23:26;0.10;99.90
17619;DHT22;8928;51.678;6.074;2023-02-28T04:26:13;0.10;99.90
17619;DHT22;8928;51.678;6.074;2023-02-28T04:29:01;0.00;99.90
17619;DHT22;8928;51.678;6.074;2023-02-28T04:31:50;0.10;99.90
17619;DHT22;8928;51.678;6.074;2023-02-28T04:34:39;0.10;99.90
17619;DHT22;8928;51.678;6.074;2023-02-28T04:37:26;0.10;99.90
17619;DHT22;8928;51.678;6.074;2023-02-28T04:40:14;0.10;99.90
17619;DHT22;8928;51.678;6.074;2023-02-28T04:43:01;0.10;99.90
17619;DHT22;8928;51.678;6.074;2023-02-28T04:45:49;0.10;99.90
17619;DHT22;8928;51.678;6.074;2023-02-28T04:48:38;0.10;99.90
17619;DHT22;8928;51.678;6.074;2023-02-28T04:51:25;0.10;99.90
17619;DHT22;8928;51.678;6.074;2023-02-28T04:54:12;0.10;99.90
17619;DHT22;8928;51.678;6.074;2023-02-28T04:57:01;0.10;99.90
17619;DHT22;8928;51.678;6.074;2023-02-28T04:59:50;0.10;99.90
17619;DHT22;8928;51.678;6.074;2023-02-28T05:02:37;0.10;99.90
17619;DHT22;8928;51.678;6.074;2023-02-28T05:05:26;0.10;99.90
17619;DHT22;8928;51.678;6.074;2023-02-28T05:08:13;0.10;99.90
17619;DHT22;8928;51.678;6.074;2023-02-28T05:11:01;0.10;99.90
17619;DHT22;8928;51.678;6.074;2023-02-28T05:13:49;0.00;99.90
17619;DHT22;8928;51.678;6.074;2023-02-28T05:16:36;0.00;99.90
17619;DHT22;8928;51.678;6.074;2023-02-28T05:19:23;0.10;99.90
17619;DHT22;8928;51.678;6.074;2023-02-28T05:22:15;0.00;99.90
17619;DHT22;8928;51.678;6.074;2023-02-28T05:25:03;0.00;99.90
17619;DHT22;8928;51.678;6.074;2023-02-28T05:27:51;0.00;99.90
17619;DHT22;8928;51.678;6.074;2023-02-28T05:30:38;0.00;99.90
17619;DHT22;8928;51.678;6.074;2023-02-28T05:33:25;0.00;99.90
17619;DHT22;8928;51.678;6.074;2023-02-28T05:36:12;0.00;99.90
17619;DHT22;8928;51.678;6.074;2023-02-28T05:39:00;0.00;99.90
17619;DHT22;8928;51.678;6.074;2023-02-28T05:41:48;0.00;99.90
17619;DHT22;8928;51.678;6.074;2023-02-28T05:44:35;0.00;99.90
17619;DHT22;8928;51.678;6.074;2023-02-28T05:47:22;0.00;99.90
17619;DHT22;8928;51.678;6.074;2023-02-28T05:50:10;-0.10;99.90
17619;DHT22;8928;51.678;6.074;2023-02-28T05:52:57;-0.10;99.90
17619;DHT22;8928;51.678;6.074;2023-02-28T05:55:45;0.00;99.90
17619;DHT22;8928;51.678;6.074;2023-02-28T05:58:32;0.00;99.90
17619;DHT22;8928;51.678;6.074;2023-02-28T06:01:23;0.00;99.90
17619;DHT22;8928;51.678;6.074;2023-02-28T06:04:11;0.00;99.90
17619;DHT22;8928;51.678;6.074;2023-02-28T06:06:59;-0.10;99.90
17619;DHT22;8928;51.678;6.074;2023-02-28T06:09:47;-0.10;99.90
17619;DHT22;8928;51.678;6.074;2023-02-28T06:12:36;-0.10;99.90
17619;DHT22;8928;51.678;6.074;2023-02-28T06:15:23;-0.20;99.90
17619;DHT22;8928;51.678;6.074;2023-02-28T06:18:10;-0.30;99.90
17619;DHT22;8928;51.678;6.074;2023-02-28T06:20:57;-0.40;99.90
17619;DHT22;8928;51.678;6.074;2023-02-28T06:23:44;-0.50;99.90
17619;DHT22;8928;51.678;6.074;2023-02-28T06:26:32;-0.60;99.90
17619;DHT22;8928;51.678;6.074;2023-02-28T06:29:20;-0.70;99.90
17619;DHT22;8928;51.678;6.074;2023-02-28T06:32:07;-0.80;99.90
17619;DHT22;8928;51.678;6.074;2023-02-28T06:34:55;-0.90;99.90
17619;DHT22;8928;51.678;6.074;2023-02-28T06:37:43;-0.90;99.90
17619;DHT22;8928;51.678;6.074;2023-02-28T06:40:30;-1.00;99.90
17619;DHT22;8928;51.678;6.074;2023-02-28T06:43:20;-1.00;99.90
17619;DHT22;8928;51.678;6.074;2023-02-28T06:46:12;-1.00;99.90
17619;DHT22;8928;51.678;6.074;2023-02-28T06:49:00;-1.00;99.90
17619;DHT22;8928;51.678;6.074;2023-02-28T06:51:47;-1.00;99.90
17619;DHT22;8928;51.678;6.074;2023-02-28T06:54:35;-1.10;99.90
17619;DHT22;8928;51.678;6.074;2023-02-28T06:57:22;-1.10;99.90
17619;DHT22;8928;51.678;6.074;2023-02-28T07:00:11;-1.10;99.90
17619;DHT22;8928;51.678;6.074;2023-02-28T07:03:00;-1.10;99.90
17619;DHT22;8928;51.678;6.074;2023-02-28T07:05:47;-1.10;99.90
17619;DHT22;8928;51.678;6.074;2023-02-28T07:08:34;-1.10;99.90
17619;DHT22;8928;51.678;6.074;2023-02-28T07:11:23;-1.10;99.90
17619;DHT22;8928;51.678;6.074;2023-02-28T07:14:11;-1.20;99.90
17619;DHT22;8928;51.678;6.074;2023-02-28T07:16:58;-1.10;99.90
17619;DHT22;8928;51.678;6.074;2023-02-28T07:19:46;-1.10;99.90
17619;DHT22;8928;51.678;6.074;2023-02-28T07:22:33;-1.10;99.90
17619;DHT22;8928;51.678;6.074;2023-02-28T07:25:20;-1.10;99.90
17619;DHT22;8928;51.678;6.074;2023-02-28T07:28:07;-1.00;99.90
17619;DHT22;8928;51.678;6.074;2023-02-28T07:30:54;-1.00;99.90
17619;DHT22;8928;51.678;6.074;2023-02-28T07:33:42;-0.90;99.90
17619;DHT22;8928;51.678;6.074;2023-02-28T07:36:30;-0.80;99.90
17619;DHT22;8928;51.678;6.074;2023-02-28T07:39:17;-0.80;99.90
17619;DHT22;8928;51.678;6.074;2023-02-28T07:42:05;-0.70;99.90
17619;DHT22;8928;51.678;6.074;2023-02-28T07:44:55;-0.80;99.90
17619;DHT22;8928;51.678;6.074;2023-02-28T07:47:42;-0.70;99.90
17619;DHT22;8928;51.678;6.074;2023-02-28T07:50:29;-0.70;99.90
17619;DHT22;8928;51.678;6.074;2023-02-28T07:53:18;-0.70;99.90
17619;DHT22;8928;51.678;6.074;2023-02-28T07:56:06;-0.60;99.90
17619;DHT22;8928;51.678;6.074;2023-02-28T07:58:53;-0.60;99.90
17619;DHT22;8928;51.678;6.074;2023-02-28T08:01:40;-0.50;99.90
17619;DHT22;8928;51.678;6.074;2023-02-28T08:04:32;-0.40;99.90
17619;DHT22;8928;51.678;6.074;2023-02-28T08:07:19;-0.20;99.90
17619;DHT22;8928;51.678;6.074;2023-02-28T08:10:09;0.00;99.90
17619;DHT22;8928;51.678;6.074;2023-02-28T08:12:56;0.20;99.90
17619;DHT22;8928;51.678;6.074;2023-02-28T08:15:43;0.30;99.90
17619;DHT22;8928;51.678;6.074;2023-02-28T08:18:32;0.50;99.90
17619;DHT22;8928;51.678;6.074;2023-02-28T08:21:19;0.60;99.90
17619;DHT22;8928;51.678;6.074;2023-02-28T08:24:07;0.70;99.90
17619;DHT22;8928;51.678;6.074;2023-02-28T08:26:55;0.70;99.90
17619;DHT22;8928;51.678;6.074;2023-02-28T08:29:42;0.90;99.90
17619;DHT22;8928;51.678;6.074;2023-02-28T08:32:29;1.00;99.90
17619;DHT22;8928;51.678;6.074;2023-02-28T08:35:16;1.10;99.90
17619;DHT22;8928;51.678;6.074;2023-02-28T08:38:03;1.20;99.90
17619;DHT22;8928;51.678;6.074;2023-02-28T08:40:57;1.30;99.90
17619;DHT22;8928;51.678;6.074;2023-02-28T08:43:45;1.40;99.90
17619;DHT22;8928;51.678;6.074;2023-02-28T08:46:32;1.60;99.90
17619;DHT22;8928;51.678;6.074;2023-02-28T08:49:19;1.70;99.90
17619;DHT22;8928;51.678;6.074;2023-02-28T08:52:06;1.90;99.90
17619;DHT22;8928;51.678;6.074;2023-02-28T08:54:53;2.10;99.90
17619;DHT22;8928;51.678;6.074;2023-02-28T08:57:40;2.20;99.90
17619;DHT22;8928;51.678;6.074;2023-02-28T09:00:29;2.30;99.90
17619;DHT22;8928;51.678;6.074;2023-02-28T09:03:16;2.50;99.90
17619;DHT22;8928;51.678;6.074;2023-02-28T09:06:03;2.60;99.90
17619;DHT22;8928;51.678;6.074;2023-02-28T09:08:52;2.80;99.90
17619;DHT22;8928;51.678;6.074;2023-02-28T09:11:39;3.00;99.90
17619;DHT22;8928;51.678;6.074;2023-02-28T09:14:26;3.10;99.90
17619;DHT22;8928;51.678;6.074;2023-02-28T09:17:15;3.20;99.90
17619;DHT22;8928;51.678;6.074;2023-02-28T09:20:02;3.40;99.90
17619;DHT22;8928;51.678;6.074;2023-02-28T09:22:49;3.50;99.90
17619;DHT22;8928;51.678;6.074;2023-02-28T09:25:36;3.60;99.90
17619;DHT22;8928;51.678;6.074;2023-02-28T09:28:24;3.80;99.90
17619;DHT22;8928;51.678;6.074;2023-02-28T09:31:12;3.80;99.90
17619;DHT22;8928;51.678;6.074;2023-02-28T09:34:01;4.10;99.90
17619;DHT22;8928;51.678;6.074;2023-02-28T09:36:48;4.10;99.90
17619;DHT22;8928;51.678;6.074;2023-02-28T09:39:36;4.30;99.90
17619;DHT22;8928;51.678;6.074;2023-02-28T09:42:27;4.50;99.90
17619;DHT22;8928;51.678;6.074;2023-02-28T09:45:22;4.60;99.90
17619;DHT22;8928;51.678;6.074;2023-02-28T09:48:14;4.80;99.90
17619;DHT22;8928;51.678;6.074;2023-02-28T09:51:12;4.90;99.90
17619;DHT22;8928;51.678;6.074;2023-02-28T09:54:02;5.00;99.90
17619;DHT22;8928;51.678;6.074;2023-02-28T09:56:51;5.20;99.90
17619;DHT22;8928;51.678;6.074;2023-02-28T09:59:45;5.30;99.90
17619;DHT22;8928;51.678;6.074;2023-02-28T10:02:50;5.40;99.90
17619;DHT22;8928;51.678;6.074;2023-02-28T10:05:43;5.50;99.90
17619;DHT22;8928;51.678;6.074;2023-02-28T10:08:39;5.60;99.90
17619;DHT22;8928;51.678;6.074;2023-02-28T10:11:33;5.80;99.90
17619;DHT22;8928;51.678;6.074;2023-02-28T10:14:24;6.00;99.90
17619;DHT22;8928;51.678;6.074;2023-02-28T10:17:16;6.20;99.90
17619;DHT22;8928;51.678;6.074;2023-02-28T10:20:09;6.20;99.90
17619;DHT22;8928;51.678;6.074;2023-02-28T10:23:02;6.30;99.90
17619;DHT22;8928;51.678;6.074;2023-02-28T10:25:58;6.50;99.90
17619;DHT22;8928;51.678;6.074;2023-02-28T10:28:45;6.50;99.90
17619;DHT22;8928;51.678;6.074;2023-02-28T10:31:32;6.50;99.90
17619;DHT22;8928;51.678;6.074;2023-02-28T10:34:20;6.60;99.90
17619;DHT22;8928;51.678;6.074;2023-02-28T10:37:07;6.80;99.90
17619;DHT22;8928;51.678;6.074;2023-02-28T10:39:54;7.00;99.90
17619;DHT22;8928;51.678;6.074;2023-02-28T10:42:55;7.10;99.90
17619;DHT22;8928;51.678;6.074;2023-02-28T10:45:54;7.40;99.90
17619;DHT22;8928;51.678;6.074;2023-02-28T10:48:44;7.40;99.90
17619;DHT22;8928;51.678;6.074;2023-02-28T10:51:38;7.50;99.90
17619;DHT22;8928;51.678;6.074;2023-02-28T10:54:29;7.60;99.90
17619;DHT22;8928;51.678;6.074;2023-02-28T10:57:19;7.60;99.90
17619;DHT22;8928;51.678;6.074;2023-02-28T11:00:15;7.70;99.90
17619;DHT22;8928;51.678;6.074;2023-02-28T11:03:25;7.90;99.90
17619;DHT22;8928;51.678;6.074;2023-02-28T11:06:17;8.00;99.90
17619;DHT22;8928;51.678;6.074;2023-02-28T11:09:16;8.10;99.90
17619;DHT22;8928;51.678;6.074;2023-02-28T11:12:10;8.20;99.90
17619;DHT22;8928;51.678;6.074;2023-02-28T11:15:21;8.20;98.80
17619;DHT22;8928;51.678;6.074;2023-02-28T11:18:22;8.40;99.00
17619;DHT22;8928;51.678;6.074;2023-02-28T11:21:16;8.90;98.50
17619;DHT22;8928;51.678;6.074;2023-02-28T11:24:14;9.20;97.30
17619;DHT22;8928;51.678;6.074;2023-02-28T11:27:05;9.00;95.20
17619;DHT22;8928;51.678;6.074;2023-02-28T11:29:56;9.30;95.40
17619;DHT22;8928;51.678;6.074;2023-02-28T11:32:49;9.60;95.50
17619;DHT22;8928;51.678;6.074;2023-02-28T11:35:38;9.80;93.60
17619;DHT22;8928;51.678;6.074;2023-02-28T11:38:26;10.00;93.30
17619;DHT22;8928;51.678;6.074;2023-02-28T11:41:37;10.00;92.50
17619;DHT22;8928;51.678;6.074;2023-02-28T11:44:36;10.20;91.90
17619;DHT22;8928;51.678;6.074;2023-02-28T11:47:32;10.40;90.70
17619;DHT22;8928;51.678;6.074;2023-02-28T11:50:46;10.50;87.20
17619;DHT22;8928;51.678;6.074;2023-02-28T11:53:47;10.40;85.40
17619;DHT22;8928;51.678;6.074;2023-02-28T11:56:39;10.50;84.70
17619;DHT22;8928;51.678;6.074;2023-02-28T11:59:38;10.60;84.40
17619;DHT22;8928;51.678;6.074;2023-02-28T12:02:35;10.50;81.30
17619;DHT22;8928;51.678;6.074;2023-02-28T12:05:34;10.60;79.70
17619;DHT22;8928;51.678;6.074;2023-02-28T12:08:36;10.70;79.40
17619;DHT22;8928;51.678;6.074;2023-02-28T12:11:34;11.10;82.00
17619;DHT22;8928;51.678;6.074;2023-02-28T12:14:46;11.00;78.30
17619;DHT22;8928;51.678;6.074;2023-02-28T12:17:50;11.10;77.60
17619;DHT22;8928;51.678;6.074;2023-02-28T12:20:45;10.90;76.00
17619;DHT22;8928;51.678;6.074;2023-02-28T12:23:56;10.90;74.20
17619;DHT22;8928;51.678;6.074;2023-02-28T12:26:49;10.80;75.70
17619;DHT22;8928;51.678;6.074;2023-02-28T12:29:43;11.10;73.80
17619;DHT22;8928;51.678;6.074;2023-02-28T12:32:35;11.10;72.10
17619;DHT22;8928;51.678;6.074;2023-02-28T12:35:26;11.20;74.50
17619;DHT22;8928;51.678;6.074;2023-02-28T12:38:20;11.20;72.20
17619;DHT22;8928;51.678;6.074;2023-02-28T12:41:12;11.40;69.80
17619;DHT22;8928;51.678;6.074;2023-02-28T12:44:03;11.60;72.70
17619;DHT22;8928;51.678;6.074;2023-02-28T12:46:55;11.70;70.80
17619;DHT22;8928;51.678;6.074;2023-02-28T12:49:48;11.80;69.70
17619;DHT22;8928;51.678;6.074;2023-02-28T12:52:41;11.80;68.90
17619;DHT22;8928;51.678;6.074;2023-02-28T12:55:38;11.80;67.90
17619;DHT22;8928;51.678;6.074;2023-02-28T12:58:33;11.90;67.30
17619;DHT22;8928;51.678;6.074;2023-02-28T13:01:51;11.90;67.40
17619;DHT22;8928;51.678;6.074;2023-02-28T13:05:26;12.00;68.60
17619;DHT22;8928;51.678;6.074;2023-02-28T13:08:37;12.00;66.20
17619;DHT22;8928;51.678;6.074;2023-02-28T13:11:31;12.10;67.80
17619;DHT22;8928;51.678;6.074;2023-02-28T13:14:25;12.50;66.90
17619;DHT22;8928;51.678;6.074;2023-02-28T13:17:18;12.20;63.60
17619;DHT22;8928;51.678;6.074;2023-02-28T13:20:16;12.40;63.70
17619;DHT22;8928;51.678;6.074;2023-02-28T13:23:04;12.50;64.50
17619;DHT22;8928;51.678;6.074;2023-02-28T13:26:11;12.80;63.40
17619;DHT22;8928;51.678;6.074;2023-02-28T13:29:02;12.70;60.90
17619;DHT22;8928;51.678;6.074;2023-02-28T13:32:19;12.80;62.00
17619;DHT22;8928;51.678;6.074;2023-02-28T13:35:35;12.50;59.40
17619;DHT22;8928;51.678;6.074;2023-02-28T13:38:35;12.20;60.00
17619;DHT22;8928;51.678;6.074;2023-02-28T13:41:42;12.70;60.40
17619;DHT22;8928;51.678;6.074;2023-02-28T13:48:00;12.60;58.70
17619;DHT22;8928;51.678;6.074;2023-02-28T13:50:48;12.80;58.90
17619;DHT22;8928;51.678;6.074;2023-02-28T13:53:55;12.80;57.90
17619;DHT22;8928;51.678;6.074;2023-02-28T13:56:50;13.10;58.40
17619;DHT22;8928;51.678;6.074;2023-02-28T13:59:49;13.50;59.70
17619;DHT22;8928;51.678;6.074;2023-02-28T14:03:03;13.90;57.90
17619;DHT22;8928;51.678;6.074;2023-02-28T14:06:08;13.90;55.70
17619;DHT22;8928;51.678;6.074;2023-02-28T14:08:59;14.00;55.70
17619;DHT22;8928;51.678;6.074;2023-02-28T14:11:49;14.70;55.70
17619;DHT22;8928;51.678;6.074;2023-02-28T14:14:56;14.90;55.30
17619;DHT22;8928;51.678;6.074;2023-02-28T14:17:43;15.30;53.90
17619;DHT22;8928;51.678;6.074;2023-02-28T14:20:32;15.20;53.50
17619;DHT22;8928;51.678;6.074;2023-02-28T14:23:32;15.10;52.20
17619;DHT22;8928;51.678;6.074;2023-02-28T14:32:49;15.60;49.70
17619;DHT22;8928;51.678;6.074;2023-02-28T14:35:50;15.70;50.10
17619;DHT22;8928;51.678;6.074;2023-02-28T14:38:43;15.50;48.20
17619;DHT22;8928;51.678;6.074;2023-02-28T14:41:33;15.80;49.00
17619;DHT22;8928;51.678;6.074;2023-02-28T14:44:24;15.60;47.50
17619;DHT22;8928;51.678;6.074;2023-02-28T14:47:14;15.70;48.20
17619;DHT22;8928;51.678;6.074;2023-02-28T14:50:04;15.30;47.00
17619;DHT22;8928;51.678;6.074;2023-02-28T14:52:53;15.30;48.40
17619;DHT22;8928;51.678;6.074;2023-02-28T14:55:44;15.60;47.70
17619;DHT22;8928;51.678;6.074;2023-02-28T14:58:32;16.10;47.60
17619;DHT22;8928;51.678;6.074;2023-02-28T15:01:21;16.10;46.70
17619;DHT22;8928;51.678;6.074;2023-02-28T15:04:18;15.70;45.10
17619;DHT22;8928;51.678;6.074;2023-02-28T15:07:10;15.70;45.90
17619;DHT22;8928;51.678;6.074;2023-02-28T15:10:16;15.60;45.30
17619;DHT22;8928;51.678;6.074;2023-02-28T15:13:06;15.20;45.80
17619;DHT22;8928;51.678;6.074;2023-02-28T15:15:56;15.20;46.50
17619;DHT22;8928;51.678;6.074;2023-02-28T15:18:47;14.90;46.70
17619;DHT22;8928;51.678;6.074;2023-02-28T15:21:37;14.60;46.30
17619;DHT22;8928;51.678;6.074;2023-02-28T15:24:32;14.10;46.40
17619;DHT22;8928;51.678;6.074;2023-02-28T15:27:25;13.90;47.30
17619;DHT22;8928;51.678;6.074;2023-02-28T15:30:17;13.70;46.10
17619;DHT22;8928;51.678;6.074;2023-02-28T15:33:17;13.30;46.20
17619;DHT22;8928;51.678;6.074;2023-02-28T15:36:09;12.80;47.30
17619;DHT22;8928;51.678;6.074;2023-02-28T15:38:57;12.90;47.50
17619;DHT22;8928;51.678;6.074;2023-02-28T15:41:46;12.90;47.70
17619;DHT22;8928;51.678;6.074;2023-02-28T15:44:34;13.10;48.60
17619;DHT22;8928;51.678;6.074;2023-02-28T15:47:23;12.90;48.60
17619;DHT22;8928;51.678;6.074;2023-02-28T15:50:12;12.80;48.10
17619;DHT22;8928;51.678;6.074;2023-02-28T15:53:00;12.00;48.00
17619;DHT22;8928;51.678;6.074;2023-02-28T15:56:00;11.40;49.40
17619;DHT22;8928;51.678;6.074;2023-02-28T15:58:49;10.90;49.30
17619;DHT22;8928;51.678;6.074;2023-02-28T16:01:39;10.40;50.00
17619;DHT22;8928;51.678;6.074;2023-02-28T16:04:26;10.00;51.50
17619;DHT22;8928;51.678;6.074;2023-02-28T16:07:17;9.70;51.30
17619;DHT22;8928;51.678;6.074;2023-02-28T16:10:06;9.40;52.50
17619;DHT22;8928;51.678;6.074;2023-02-28T16:12:54;9.20;53.00
17619;DHT22;8928;51.678;6.074;2023-02-28T16:15:43;8.90;53.50
17619;DHT22;8928;51.678;6.074;2023-02-28T16:18:30;8.50;54.40
17619;DHT22;8928;51.678;6.074;2023-02-28T16:21:17;8.10;55.30
17619;DHT22;8928;51.678;6.074;2023-02-28T16:24:05;7.70;56.20
17619;DHT22;8928;51.678;6.074;2023-02-28T16:26:54;7.30;57.80
17619;DHT22;8928;51.678;6.074;2023-02-28T16:29:42;7.00;58.70
17619;DHT22;8928;51.678;6.074;2023-02-28T16:32:32;6.70;59.60
17619;DHT22;8928;51.678;6.074;2023-02-28T16:35:22;6.40;60.70
17619;DHT22;8928;51.678;6.074;2023-02-28T16:38:09;6.20;62.10
17619;DHT22;8928;51.678;6.074;2023-02-28T16:40:59;5.90;63.40
17619;DHT22;8928;51.678;6.074;2023-02-28T16:43:47;5.70;65.30
17619;DHT22;8928;51.678;6.074;2023-02-28T16:46:35;5.50;66.80
17619;DHT22;8928;51.678;6.074;2023-02-28T16:49:24;5.30;67.80
17619;DHT22;8928;51.678;6.074;2023-02-28T16:52:12;5.10;69.40
17619;DHT22;8928;51.678;6.074;2023-02-28T16:54:59;5.00;70.80
17619;DHT22;8928;51.678;6.074;2023-02-28T16:57:50;4.80;73.40
17619;DHT22;8928;51.678;6.074;2023-02-28T17:00:38;4.70;75.90
17619;DHT22;8928;51.678;6.074;2023-02-28T17:03:26;4.60;77.00
17619;DHT22;8928;51.678;6.074;2023-02-28T17:06:21;4.40;78.30
17619;DHT22;8928;51.678;6.074;2023-02-28T17:09:15;4.30;80.50
17619;DHT22;8928;51.678;6.074;2023-02-28T17:12:02;4.20;86.20
17619;DHT22;8928;51.678;6.074;2023-02-28T17:14:49;4.00;90.10
17619;DHT22;8928;51.678;6.074;2023-02-28T17:17:36;3.90;91.30
17619;DHT22;8928;51.678;6.074;2023-02-28T17:20:24;3.80;94.50
17619;DHT22;8928;51.678;6.074;2023-02-28T17:23:13;3.60;96.90
17619;DHT22;8928;51.678;6.074;2023-02-28T17:26:00;3.50;99.90
17619;DHT22;8928;51.678;6.074;2023-02-28T17:28:48;3.40;99.90
17619;DHT22;8928;51.678;6.074;2023-02-28T17:31:36;3.30;99.90
17619;DHT22;8928;51.678;6.074;2023-02-28T17:34:24;3.20;99.90
17619;DHT22;8928;51.678;6.074;2023-02-28T17:37:11;3.00;99.90
17619;DHT22;8928;51.678;6.074;2023-02-28T17:39:59;2.90;99.90
17619;DHT22;8928;51.678;6.074;2023-02-28T17:42:47;2.80;99.90
17619;DHT22;8928;51.678;6.074;2023-02-28T17:45:34;2.70;99.90
17619;DHT22;8928;51.678;6.074;2023-02-28T17:48:22;2.60;99.90
17619;DHT22;8928;51.678;6.074;2023-02-28T17:51:11;2.50;99.90
17619;DHT22;8928;51.678;6.074;2023-02-28T17:53:58;2.40;99.90
17619;DHT22;8928;51.678;6.074;2023-02-28T17:56:47;2.30;99.90
17619;DHT22;8928;51.678;6.074;2023-02-28T17:59:34;2.20;99.90
17619;DHT22;8928;51.678;6.074;2023-02-28T18:02:21;2.20;99.90
17619;DHT22;8928;51.678;6.074;2023-02-28T18:05:09;2.00;99.90
17619;DHT22;8928;51.678;6.074;2023-02-28T18:07:56;1.90;99.90
17619;DHT22;8928;51.678;6.074;2023-02-28T18:10:44;1.80;99.90
17619;DHT22;8928;51.678;6.074;2023-02-28T18:13:32;1.70;99.90
17619;DHT22;8928;51.678;6.074;2023-02-28T18:16:20;1.60;99.90
17619;DHT22;8928;51.678;6.074;2023-02-28T18:19:07;1.50;99.90
17619;DHT22;8928;51.678;6.074;2023-02-28T18:21:59;1.40;99.90
17619;DHT22;8928;51.678;6.074;2023-02-28T18:24:46;1.30;99.90
17619;DHT22;8928;51.678;6.074;2023-02-28T18:27:34;1.20;99.90
17619;DHT22;8928;51.678;6.074;2023-02-28T18:30:23;1.10;99.90
17619;DHT22;8928;51.678;6.074;2023-02-28T18:33:10;1.00;99.90
17619;DHT22;8928;51.678;6.074;2023-02-28T18:35:57;1.00;99.90
17619;DHT22;8928;51.678;6.074;2023-02-28T18:38:44;1.00;99.90
17619;DHT22;8928;51.678;6.074;2023-02-28T18:41:32;0.90;99.90